Home > Products > Valid Products > TAF

000
FTUS41 KBGM 270500 CCA
TAFELM
TAF COR
KELM 270544Z 2706/2806 36003KT 4SM -SHSN OVC015
      TEMPO 2712/2715 OVC025
     FM271500 34005KT P6SM -SHSN OVC025
     FM271700 32005KT P6SM OVC035
     FM280100 26004KT P6SM OVC035=



000
FTUS41 KBGM 270500
TAFSYR
TAF
KSYR 270535Z 2706/2806 31005KT 4SM -SHSN OVC025
      TEMPO 2706/2708 2SM -SHSN BKN009
     FM271800 32007KT P6SM -SHSN OVC030
     FM280000 28004KT P6SM OVC030=



000
FTUS41 KBGM 270500
TAFBGM
TAF
KBGM 270535Z 2706/2806 32006KT 4SM -SHSN OVC010
      TEMPO 2708/2710 OVC015
     FM271000 33004KT P6SM -SHSN OVC015
     FM271700 31006KT P6SM -SHSN OVC030
     FM272100 32006KT P6SM OVC035=



000
FTUS41 KBGM 270500
TAFITH
TAF
KITH 270535Z 2706/2806 32006KT 4SM -SHSN OVC007
      TEMPO 2709/2712 OVC012
     FM271200 33005KT P6SM -SHSN OVC015
     FM271700 31006KT P6SM -SHSN OVC030
     FM280000 30004KT P6SM OVC030=



000
FTUS41 KBGM 270500
TAFAVP
TAF
KAVP 270535Z 2706/2806 30008KT P6SM OVC018
     FM271700 33007KT P6SM OVC035=



000
FTUS41 KBGM 270500
TAFELM
TAF
KELM 270535Z 2706/2806 36003KT 4SM -SHSN OVC015
      TEMPO 2712/2715 OVC025
     FM271700 32005KT P6SM OVC035
     FM280100 26004KT P6SM OVC035=



000
FTUS41 KBGM 270400 AAC
TAFITH
TAF AMD
KITH 270402Z 2704/2724 35006KT 2SM -SN OVC009
      TEMPO 2704/2705 4SM -SN OVC015
     FM270500 32006KT 4SM -SHSN OVC025
     FM271700 31006KT P6SM OVC035=



000
FTUS41 KBGM 270400 AAC
TAFITH
TAF AMD
KITH 270402Z 2704/2724 35006KT 2SM -SN OVC009
      TEMPO 2704/2705 4SM -SN OVC015
     FM270500 32006KT 4SM -SHSN OVC025
     FM271700 31006KT P6SM OVC035=



000
FTUS41 KBGM 270200 AAB
TAFITH
TAF AMD
KITH 270257Z 2703/2724 35006KT 2SM -SN OVC009
      TEMPO 2703/2704 4SM -SN OVC015
     FM270400 32006KT 4SM -SHSN OVC025
     FM271700 31006KT P6SM OVC035=



000
FTUS41 KBGM 270200 AAA
TAFITH
TAF AMD
KITH 270221Z 2702/2724 35006KT 3/4SM -SN OVC004
      TEMPO 2702/2704 4SM -SN OVC015
     FM270400 32006KT 4SM -SHSN OVC025
     FM271700 31006KT P6SM OVC035=



000
FTUS41 KBGM 270200 AAA
TAFAVP
TAF AMD
KAVP 270221Z 2702/2724 30008KT 3SM -SN OVC015
      TEMPO 2702/2703 2SM -SHSN
     FM270600 33005KT P6SM OVC025
     FM271500 33007KT P6SM OVC035=



000
FTUS41 KBGM 270200 AAA
TAFSYR
TAF AMD
KSYR 270220Z 2702/2724 33005KT 4SM -SHSN OVC025
     FM271800 32007KT P6SM OVC035=



000
FTUS41 KBGM 270000 AAA
TAFELM
TAF AMD
KELM 270006Z 2700/2724 VRB02KT 3SM -SN OVC025
      TEMPO 2700/2701 2SM -SN OVC015
     FM270400 33003KT 4SM -SHSN OVC025
     FM271600 32005KT P6SM OVC035=



000
FTUS41 KBGM 262300
TAFSYR
TAF
KSYR 262320Z 2700/2724 34006KT 1SM -SN OVC015
      TEMPO 2701/2703 4SM -SN
     FM270300 33005KT 4SM -SHSN OVC025=



000
FTUS41 KBGM 262300
TAFAVP
TAF
KAVP 262320Z 2700/2724 30008KT 1SM -SN OVC008
      TEMPO 2704/2706 5SM -SHSN OVC015
     FM270600 33005KT P6SM OVC025
     FM271500 33007KT P6SM OVC035=



000
FTUS41 KBGM 262300
TAFELM
TAF
KELM 262320Z 2700/2724 VRB02KT 1SM -SN OVC015
      TEMPO 2703/2704 4SM -SN
     FM270400 33003KT 4SM -SHSN OVC025
     FM271600 32005KT P6SM OVC035=



000
FTUS41 KBGM 262300
TAFBGM
TAF
KBGM 262320Z 2700/2724 35006KT 1SM -SN OVC004
      TEMPO 2705/2707 4SM -SN OVC015
     FM270700 32006KT 4SM -SHSN OVC025
     FM271700 31006KT P6SM OVC035=



000
FTUS41 KBGM 262300
TAFITH
TAF
KITH 262320Z 2700/2724 35006KT 3/4SM -SN OVC004
      TEMPO 2704/2706 4SM -SN OVC015
     FM270600 32006KT 4SM -SHSN OVC025
     FM271700 31006KT P6SM OVC035=



000
FTUS41 KBGM 262100 AAB
TAFBGM
TAF AMD
KBGM 262113Z 2621/2718 01008KT 1/2SM SN FZFG OVC010
      TEMPO 2621/2622 1/4SM +SN FZFG VV006
     FM270000 34009KT 3/4SM -SN OVC015
     FM270700 33007KT 5SM -SHSN OVC022=



000
FTUS41 KBGM 261900 AAA
TAFBGM
TAF AMD
KBGM 261949Z 2620/2718 01008KT 1/4SM +SN FZFG OVC008
     FM262100 01008KT 1/2SM SN FZFG OVC010
     FM270000 34009KT 3/4SM -SN OVC015
     FM270700 33007KT 5SM -SHSN OVC022=



000
FTUS41 KBGM 261900 AAA
TAFAVP
TAF AMD
KAVP 261911Z 2619/2718 VRB06KT 1/2SM SN OVC004
     FM262300 32008KT 3/4SM -SN OVC018
     FM270600 VRB03KT P6SM -SHSN OVC030
     FM271300 34004KT P6SM -SHSN OVC035=



000
FTUS41 KBGM 261900 AAA
TAFBGM
TAF AMD
KBGM 261907Z 2619/2718 01006KT 1/2SM SN FZFG OVC012
      TEMPO 2619/2623 OVC009
     FM270000 34009KT 3/4SM -SN OVC015
     FM270700 33007KT 5SM -SHSN OVC022=



000
FTUS41 KBGM 261900 AAA
TAFITH
TAF AMD
KITH 261903Z 2619/2718 VRB05KT 3/4SM -SN BR OVC012
      TEMPO 2619/2620 OVC004
     FM270500 32005KT 5SM -SHSN OVC030=



000
FTUS41 KBGM 261700
TAFITH
TAF
KITH 261738Z 2618/2718 03005KT 3/4SM -SN BR OVC010
      TEMPO 2618/2620 1/2SM -SN FG OVC010
     FM270500 32005KT 5SM -SHSN OVC030=



000
FTUS41 KBGM 261700
TAFAVP
TAF
KAVP 261738Z 2618/2718 VRB06KT 1/4SM +SN OVC004
     FM262000 36008KT 1/2SM SN OVC004
     FM262300 32008KT 3/4SM -SN OVC018
     FM270600 VRB03KT P6SM -SHSN OVC030
     FM271300 34004KT P6SM -SHSN OVC035=



000
FTUS41 KBGM 261700
TAFBGM
TAF
KBGM 261738Z 2618/2718 03006KT 1/2SM SN FZFG OVC012
      TEMPO 2618/2620 1/4SM +SN FZFG OVC009
     FM270000 34009KT 3/4SM -SN OVC015
     FM270700 33007KT 5SM -SHSN OVC022=



000
FTUS41 KBGM 261700
TAFELM
TAF
KELM 261738Z 2618/2718 VRB05KT 1/2SM -SN FG OVC009
     FM262200 35005KT 3/4SM -SN OVC015
     FM270500 32005KT 5SM -SHSN OVC030
     FM271200 32005KT P6SM -SHSN OVC035=



000
FTUS41 KBGM 261700
TAFSYR
TAF
KSYR 261738Z 2618/2718 04005KT 3/4SM -SN OVC010
     FM270000 36007KT 3/4SM -SN OVC010
     FM270700 31007KT 3SM -SHSN OVC025=



000
FTUS41 KBGM 261400 AAB
TAFAVP
TAF AMD
KAVP 261436Z 2615/2712 01005KT 1/2SM SN OVC004
      TEMPO 2615/2618 1/4SM +SN VV004
     FM262300 32008KT 2SM -SN OVC018
     FM270600 VRB03KT P6SM -SHSN OVC035=



000
FTUS41 KBGM 261400 AAA
TAFITH
TAF AMD
KITH 261400Z 2614/2712 03005KT P6SM BKN035 OVC050
     FM261600 36009KT 1SM -SN OVC015
     FM270100 33009KT 3SM -SN OVC022=



000
FTUS41 KBGM 261300 AAA
TAFELM
TAF AMD
KELM 261359Z 2614/2712 06005KT P6SM BKN025 OVC035
     FM261600 04005KT 1SM -SN OVC015
     FM270100 33009KT 3SM -SHSN OVC022
     FM270600 33005KT 5SM -SHSN OVC035=



000
FTUS41 KBGM 261300 AAA
TAFBGM
TAF AMD
KBGM 261356Z 2614/2712 06005KT P6SM BKN025 OVC050
      TEMPO 2615/2616 3SM -SN OVC020
     FM261600 02006KT 1/2SM SN OVC009
     FM270100 34009KT 2SM -SN OVC018
     FM270700 33007KT 5SM -SHSN OVC022=



000
FTUS41 KBGM 261300 AAA
TAFAVP
TAF AMD
KAVP 261320Z 2613/2712 01005KT 3SM -SN OVC020
     FM261400 03005KT 3/4SM -SN OVC012
     FM261600 03005KT 1/2SM SN OVC009
     FM262300 32008KT 2SM -SN OVC018
     FM270600 VRB03KT P6SM -SHSN OVC035=



000
FTUS41 KBGM 261100
TAFBGM
TAF
KBGM 261126Z 2612/2712 06005KT P6SM BKN025 OVC050
     FM261400 02006KT 3SM -SN BR OVC018
     FM261600 02006KT 1/2SM SN OVC009
     FM270100 34009KT 2SM -SN OVC018
     FM270700 33007KT 5SM -SHSN OVC022=



000
FTUS41 KBGM 261100
TAFITH
TAF
KITH 261126Z 2612/2712 03005KT P6SM BKN025 OVC050
     FM261500 36009KT 1SM -SN OVC015
     FM270100 33009KT 3SM -SN OVC022=



000
FTUS41 KBGM 261100
TAFSYR
TAF
KSYR 261126Z 2612/2712 26005KT P6SM OVC035
     FM261800 03008KT 5SM -SN OVC025
      TEMPO 2618/2622 2SM -SN OVC015
     FM262200 03006KT 3SM -SN OVC022
     FM270700 31007KT 3SM -SHSN OVC025=



000
FTUS41 KBGM 261100
TAFELM
TAF
KELM 261126Z 2612/2712 06005KT P6SM BKN025 OVC035
     FM261500 04005KT 1SM -SN OVC015
     FM270100 33009KT 3SM -SHSN OVC022
     FM270600 33005KT 5SM -SHSN OVC035=



000
FTUS41 KBGM 261100
TAFAVP
TAF
KAVP 261126Z 2612/2712 01005KT P6SM -RASN OVC050
      TEMPO 2612/2613 2SM -SN OVC015
     FM261400 03005KT 3/4SM -SN OVC012
     FM261600 03005KT 1/2SM SN OVC009
     FM262300 32008KT 2SM -SN OVC018
     FM270600 VRB03KT P6SM -SHSN OVC035=



000
FTUS41 KBGM 260900 AAA
TAFELM
TAF AMD
KELM 260936Z 2610/2706 05005KT P6SM BKN025 BKN250
     FM261200 06005KT P6SM -SN BKN025 OVC035
      TEMPO 2612/2615 2SM -SN OVC015
     FM261500 04005KT 1SM -SN OVC015
     FM270200 33009KT 3SM -SHSN OVC022=



000
FTUS41 KBGM 260900 AAA
TAFITH
TAF AMD
KITH 260935Z 2610/2706 30005KT P6SM BKN025 BKN250
     FM261200 03005KT P6SM BKN025 OVC050
      TEMPO 2613/2615 2SM -SN OVC020
     FM261500 36009KT 1SM -SN OVC015
     FM270300 33009KT 2SM -SN OVC018=



000
FTUS41 KBGM 260900 AAA
TAFBGM
TAF AMD
KBGM 260935Z 2610/2706 30005KT P6SM BKN025 BKN250
     FM261200 03005KT P6SM -SN BKN025 OVC050
      TEMPO 2612/2614 1SM -SN OVC015
     FM261400 02006KT 1SM -SN BR OVC012
     FM261600 02006KT 1/2SM SN OVC009
     FM270300 34009KT 1SM -SN OVC015=



000
FTUS41 KBGM 260500
TAFITH
TAF
KITH 260533Z 2606/2706 30005KT P6SM BKN250
     FM261200 03005KT P6SM OVC050
      TEMPO 2613/2615 2SM -SN OVC020
     FM261500 36009KT 1SM -SN OVC015
     FM270300 33009KT 2SM -SN OVC018=



000
FTUS41 KBGM 260500
TAFELM
TAF
KELM 260533Z 2606/2706 30005KT P6SM BKN250
     FM261200 06005KT P6SM -SN OVC050
      TEMPO 2612/2615 2SM -SN OVC015
     FM261500 04005KT 1SM -SN OVC015
     FM270200 33009KT 3SM -SHSN OVC022=



000
FTUS41 KBGM 260500
TAFAVP
TAF
KAVP 260533Z 2606/2706 33003KT P6SM OVC200
     FM261100 01005KT P6SM OVC050
      TEMPO 2611/2613 2SM -SN OVC015
     FM261300 03005KT 3/4SM -SN OVC012
     FM261500 03005KT 1/2SM SN OVC009
     FM270100 32008KT 2SM -SN OVC018=



000
FTUS41 KBGM 260500
TAFSYR
TAF
KSYR 260533Z 2606/2706 30005KT P6SM BKN250
     FM261500 03008KT P6SM OVC050
      TEMPO 2616/2618 2SM -SN OVC015
     FM261800 03006KT 1 1/2SM -SN OVC020
     FM270300 34009KT 3SM -SHSN OVC025=



000
FTUS41 KBGM 260500
TAFBGM
TAF
KBGM 260533Z 2606/2706 30005KT P6SM BKN250
     FM261200 03005KT P6SM -SN OVC050
      TEMPO 2612/2614 1SM -SN OVC015
     FM261400 02006KT 1SM -SN BR OVC012
     FM261600 02006KT 1/2SM SN OVC009
     FM270300 34009KT 1SM -SN OVC015=



000
FTUS41 KBGM 252300
TAFSYR
TAF
KSYR 252339Z 2600/2624 30005KT P6SM BKN250
     FM261500 03008KT P6SM OVC050
      TEMPO 2616/2618 2SM -SN OVC015
     FM261800 03006KT 1 1/2SM -SN OVC020=



000
FTUS41 KBGM 252300
TAFAVP
TAF
KAVP 252339Z 2600/2624 33003KT P6SM OVC200
     FM261100 01005KT P6SM OVC050
      TEMPO 2611/2613 2SM -SN OVC015
     FM261300 03005KT 3/4SM -SN OVC012
     FM261500 03005KT 1/2SM SN OVC009=



000
FTUS41 KBGM 252300
TAFITH
TAF
KITH 252339Z 2600/2624 30005KT P6SM BKN250
     FM261200 03005KT P6SM OVC050
      TEMPO 2613/2615 2SM -SN OVC020
     FM261500 36009KT 1SM -SN OVC015=



000
FTUS41 KBGM 252300
TAFBGM
TAF
KBGM 252339Z 2600/2624 30005KT P6SM BKN250
     FM261200 03005KT P6SM -SN OVC050
      TEMPO 2612/2614 1SM -SN OVC015
     FM261400 02006KT 1SM -SN BR OVC012
     FM261600 02006KT 1/2SM SN OVC009=



000
FTUS41 KBGM 252300
TAFELM
TAF
KELM 252339Z 2600/2624 30005KT P6SM BKN250
     FM261200 06005KT P6SM -SN OVC050
      TEMPO 2612/2615 2SM -SN OVC015
     FM261500 04005KT 1SM -SN OVC015=



000
FTUS41 KBGM 252000 AAA
TAFAVP
TAF AMD
KAVP 252008Z 2520/2618 23012KT P6SM BKN250
     FM260000 VRB05KT P6SM BKN250
     FM260700 36005KT P6SM BKN050 OVC150
      TEMPO 2607/2610 2SM -SN
     FM261000 03005KT 2SM -SN OVC018
     FM261300 03006KT 1/2SM SN OVC010=



000
FTUS41 KBGM 252000 AAA
TAFSYR
TAF AMD
KSYR 252008Z 2520/2618 25012KT P6SM SCT040 BKN250
     FM260000 26010KT P6SM BKN250
     FM260700 VRB03KT P6SM BKN150 BKN250
     FM261000 30009KT P6SM BKN050 OVC150
      TEMPO 2615/2618 2SM -SN BKN015=



000
FTUS41 KBGM 251700 CCA
TAFSYR
TAF COR
KSYR 251758Z 2518/2618 24012G25KT P6SM SCT040 BKN250
     FM260000 26010KT P6SM BKN250
     FM260700 VRB03KT P6SM BKN150 BKN250
     FM261000 30009KT P6SM BKN050 OVC150
      TEMPO 2615/2618 2SM -SN BKN015=



000
FTUS41 KBGM 251700 CCA
TAFITH
TAF COR
KITH 251758Z 2518/2618 24012G25KT P6SM BKN250
     FM260000 27008KT P6SM BKN250
     FM260600 35005KT P6SM BKN050 OVC150
     FM261500 33009KT P6SM -SN OVC050
      TEMPO 2615/2618 2SM -SN BKN015=



000
FTUS41 KBGM 251700
TAFITH
TAF
KITH 251730Z 2518/2618 24015G25KT P6SM BKN250
     FM260000 27008KT P6SM BKN250
     FM260600 35005KT P6SM BKN050 OVC150
     FM261500 33009KT P6SM -SN OVC050
      TEMPO 2615/2618 2SM -SN BKN015=



000
FTUS41 KBGM 251700
TAFELM
TAF
KELM 251730Z 2518/2618 25015G25KT P6SM BKN250
     FM260000 30005KT P6SM BKN250
     FM260700 VRB03KT P6SM -SN BKN050 OVC150
      TEMPO 2611/2615 2SM -SN BKN015
     FM261500 02005KT 1SM -SN OVC010=



000
FTUS41 KBGM 251700
TAFSYR
TAF
KSYR 251730Z 2518/2618 24018G28KT P6SM SCT040 BKN250
     FM260000 26010KT P6SM BKN250
     FM260700 VRB03KT P6SM BKN150 BKN250
     FM261000 30009KT P6SM BKN050 OVC150
      TEMPO 2615/2618 2SM -SN BKN015=



000
FTUS41 KBGM 251700
TAFBGM
TAF
KBGM 251730Z 2518/2618 24013G25KT P6SM BKN250
     FM260000 30007KT P6SM BKN250
     FM260700 03005KT P6SM -SN BKN050 OVC150
     FM261100 02006KT 2SM -SN BR OVC018
      TEMPO 2614/2618 1/2SM SN OVC010=



000
FTUS41 KBGM 251700
TAFAVP
TAF
KAVP 251730Z 2518/2618 23014G25KT P6SM BKN250
     FM260000 VRB05KT P6SM BKN250
     FM260700 36005KT P6SM BKN050 OVC150
      TEMPO 2607/2610 2SM -SN
     FM261000 03005KT 2SM -SN OVC018
     FM261300 03006KT 1/2SM SN OVC010=



000
FTUS41 KBGM 251300 AAA
TAFSYR
TAF AMD
KSYR 251359Z 2514/2612 25018G28KT P6SM SCT040
     FM260000 26010KT P6SM BKN250
     FM260600 VRB03KT P6SM BKN250=



000
FTUS41 KBGM 251300 AAA
TAFITH
TAF AMD
KITH 251304Z 2513/2612 24010KT P6SM SKC
     FM251500 24015G25KT P6SM SKC
     FM260000 27008KT P6SM BKN250
     FM260600 VRB03KT P6SM BKN100=



000
FTUS41 KBGM 251100
TAFSYR
TAF
KSYR 251133Z 2512/2612 21010KT P6SM SCT050
     FM251500 25018G28KT P6SM SCT040
     FM260000 26010KT P6SM BKN250
     FM260600 VRB03KT P6SM BKN250=



000
FTUS41 KBGM 251100
TAFBGM
TAF
KBGM 251133Z 2512/2612 24013G25KT P6SM SKC
     FM260000 30007KT P6SM BKN250
     FM260800 03005KT 3SM -SN OVC018=



000
FTUS41 KBGM 251100
TAFITH
TAF
KITH 251133Z 2512/2612 14010KT P6SM SKC
     FM251500 24015G25KT P6SM SKC
     FM260000 27008KT P6SM BKN250
     FM260600 VRB03KT P6SM BKN100=



000
FTUS41 KBGM 251100
TAFAVP
TAF
KAVP 251133Z 2512/2612 23014G25KT P6SM SKC
     FM260000 34005KT P6SM BKN250
     FM260700 35005KT 5SM -SN OVC025
     FM261000 25005KT 2SM -SN BR OVC018=



000
FTUS41 KBGM 251100
TAFELM
TAF
KELM 251133Z 2512/2612 25010KT P6SM SKC
     FM251400 25015G25KT P6SM SKC
     FM260000 28005KT P6SM BKN250
     FM260600 VRB03KT P6SM BKN100=



000
FTUS41 KBGM 250800 AAA
TAFITH
TAF AMD
KITH 250837Z 2509/2606 25011KT P6SM SKC
     FM251200 24015G25KT P6SM SKC
     FM260000 27008KT P6SM BKN250=



000
FTUS41 KBGM 250800 AAA
TAFBGM
TAF AMD
KBGM 250837Z 2509/2606 24015G25KT P6SM SKC
     FM251200 24012G22KT P6SM SKC
     FM260000 30007KT P6SM BKN250=



000
FTUS41 KBGM 250800 AAA
TAFSYR
TAF AMD
KSYR 250837Z 2509/2606 24007KT P6SM SCT040
     FM251200 25018G28KT P6SM SCT040
     FM260000 26010KT P6SM BKN250=



000
FTUS41 KBGM 250800 AAA
TAFAVP
TAF AMD
KAVP 250837Z 2509/2606 23010KT P6SM SKC
     FM260000 34005KT P6SM BKN250=



000
FTUS41 KBGM 250800 AAA
TAFELM
TAF AMD
KELM 250837Z 2509/2606 25010KT P6SM SKC
     FM251300 25015G25KT P6SM SKC
     FM260000 28005KT P6SM BKN250=



000
FTUS41 KBGM 250500
TAFELM
TAF
KELM 250536Z 2506/2606 25010KT P6SM SKC
     FM251300 25015G25KT P6SM SKC
     FM260000 28005KT P6SM BKN250=



000
FTUS41 KBGM 250500
TAFAVP
TAF
KAVP 250536Z 2506/2606 23010KT P6SM SKC
     FM260000 34005KT P6SM BKN250=



000
FTUS41 KBGM 250500
TAFSYR
TAF
KSYR 250536Z 2506/2606 28012KT P6SM SCT040
     FM251200 25018G28KT P6SM SCT040
     FM260000 26010KT P6SM BKN250=



000
FTUS41 KBGM 250500
TAFITH
TAF
KITH 250536Z 2506/2606 24012G20KT P6SM SKC
     FM251200 24015G25KT P6SM SKC
     FM260000 27008KT P6SM BKN250=



000
FTUS41 KBGM 250500
TAFBGM
TAF
KBGM 250536Z 2506/2606 23015G25KT P6SM SKC
     FM251200 24012G22KT P6SM SKC
     FM260000 30007KT P6SM BKN250=



000
FTUS41 KBGM 250300 AAA
TAFSYR
TAF AMD
KSYR 250336Z 2504/2524 26015G25KT P6SM SCT040
     FM251200 25018G28KT P6SM SCT040=



000
FTUS41 KBGM 242300 RRA
TAFSYR
TAF
KSYR 242341Z 2500/2524 18020G35KT P6SM BKN060
      TEMPO 2500/2501 -SHRA
     FM250100 25020G30KT P6SM SCT040
     FM251200 25018G28KT P6SM SCT040=



000
FTUS41 KBGM 242300 RRA
TAFBGM
TAF
KBGM 242341Z 2500/2524 20015G30KT P6SM BKN040
     FM250400 23011KT P6SM FEW100
     FM251200 24012G22KT P6SM FEW100=



000
FTUS41 KBGM 242300 RRA
TAFELM
TAF
KELM 242341Z 2500/2524 25010G25KT P6SM FEW100
      TEMPO 2500/2504 25015G30KT
     FM250600 23008KT P6SM FEW100
     FM251200 25015G25KT P6SM FEW100=



000
FTUS41 KBGM 242300 RRA
TAFAVP
TAF
KAVP 242341Z 2500/2524 20015G30KT P6SM BKN060 WS020/19045KT
     FM250200 23010G20KT P6SM FEW100
     FM250400 26010KT P6SM SKC=



000
FTUS41 KBGM 242300 RRA
TAFITH
TAF
KITH 242341Z 2500/2524 22012G20KT P6SM FEW100
      TEMPO 2500/2504 22015G30KT
     FM251200 24015G25KT P6SM FEW100=



000
FTUS41 KBGM 241800 AAA
TAFBGM
TAF AMD
KBGM 241807Z 2418/2518 20015G30KT P6SM BKN040 WS020/19045KT
     FM250100 23015G25KT P6SM BKN040=



000
FTUS41 KBGM 241800 AAA
TAFSYR
TAF AMD
KSYR 241806Z 2418/2518 18020G35KT P6SM BKN060 WS020/19045KT
     FM250100 25020G30KT P6SM BKN040=



000
FTUS41 KBGM 241700
TAFITH
TAF
KITH 241720Z 2418/2518 19015G25KT P6SM BKN040 WS020/19045KT
     FM242300 22015G25KT P6SM BKN040=



000
FTUS41 KBGM 241700
TAFAVP
TAF
KAVP 241720Z 2418/2518 20015G25KT P6SM BKN060 WS020/19045KT
     FM250200 23010G20KT P6SM BKN060=



000
FTUS41 KBGM 241700
TAFBGM
TAF
KBGM 241720Z 2418/2518 20015G25KT P6SM BKN040 WS020/19045KT
     FM250100 23015G25KT P6SM BKN040=



000
FTUS41 KBGM 241700
TAFELM
TAF
KELM 241720Z 2418/2518 22015G30KT P6SM BKN050 WS020/19045KT
     FM242300 25010G20KT P6SM BKN050=



000
FTUS41 KBGM 241700
TAFSYR
TAF
KSYR 241720Z 2418/2518 18015G25KT P6SM BKN060 WS020/19045KT
     FM250100 25020G30KT P6SM BKN040=



000
FTUS41 KBGM 241600 AAB
TAFAVP
TAF AMD
KAVP 241613Z 2416/2512 21012G25KT P6SM SCT025 OVC035 WS020/19045KT
     FM241800 23015G25KT P6SM BKN040 WS020/19045KT
     FM250000 25012G22KT P6SM BKN040=



000
FTUS41 KBGM 241500 AAA
TAFAVP
TAF AMD
KAVP 241527Z 2415/2512 21012G25KT P6SM SCT025 OVC035 WS020/19045KT
      TEMPO 2415/2417 OVC025
     FM241800 23015G25KT P6SM BKN040 WS020/19045KT
     FM250000 25012G22KT P6SM BKN040=



000
FTUS41 KBGM 241500 AAB
TAFBGM
TAF AMD
KBGM 241527Z 2415/2512 20015G25KT P6SM BKN040 WS020/19045KT
     FM250000 23015G25KT P6SM BKN040=



000
FTUS41 KBGM 241500 AAB
TAFITH
TAF AMD
KITH 241526Z 2415/2512 18015G25KT P6SM BKN040 WS020/19050KT
     FM241600 18015G25KT P6SM BKN040 WS020/19045KT
     FM250000 23015G22KT P6SM OVC040=



000
FTUS41 KBGM 241500 AAA
TAFELM
TAF AMD
KELM 241526Z 2415/2512 22015G25KT P6SM BKN040 WS020/19045KT
     FM250000 25012G22KT P6SM BKN040=



000
FTUS41 KBGM 241500 AAA
TAFSYR
TAF AMD
KSYR 241525Z 2415/2512 19015G25KT P6SM BKN040 WS020/19045KT
     FM250000 25015G30KT P6SM BKN040=



000
FTUS41 KBGM 241500 AAA
TAFBGM
TAF AMD
KBGM 241501Z 2415/2512 20015G25KT P6SM BKN040
     FM250000 23015G25KT P6SM BKN040=



000
FTUS41 KBGM 241400 AAA
TAFITH
TAF AMD
KITH 241459Z 2415/2512 18015G25KT P6SM BKN040 WS020/19050KT
     FM241600 18015G25KT P6SM BKN040
     FM250000 23015G22KT P6SM OVC040=



000
FTUS41 KBGM 241100
TAFSYR
TAF
KSYR 241134Z 2412/2512 10010G20KT P6SM BKN025 OVC035 WS020/17050KT
     FM241400 14015G25KT P6SM OVC035 WS020/19045KT
     FM241700 19015G25KT P6SM BKN040
     FM250000 25015G30KT P6SM BKN040=



000
FTUS41 KBGM 241100
TAFBGM
TAF
KBGM 241134Z 2412/2512 17012G25KT P6SM SCT008 OVC015 WS020/19050KT
      TEMPO 2412/2414 OVC008
     FM241400 19015G25KT P6SM OVC015
     FM241600 20015G25KT P6SM BKN035
     FM250000 23015G25KT P6SM BKN040=



000
FTUS41 KBGM 241100
TAFAVP
TAF
KAVP 241134Z 2412/2512 19015G30KT P6SM SCT015 OVC025
     FM241500 21012G25KT P6SM SCT025 OVC035
     FM241800 23015G25KT P6SM BKN040
     FM250000 25012G22KT P6SM BKN040=



000
FTUS41 KBGM 241100
TAFITH
TAF
KITH 241134Z 2412/2512 16015G25KT P6SM OVC015 WS020/19050KT
     FM241600 18015G25KT P6SM BKN035
     FM250000 23015G22KT P6SM OVC040=



000
FTUS41 KBGM 241100
TAFELM
TAF
KELM 241134Z 2412/2512 20012G22KT P6SM BKN025 OVC035 WS020/19050KT
     FM241500 22015G25KT P6SM BKN040
     FM250000 25012G22KT P6SM BKN040=



000
FTUS41 KBGM 241000 AAB
TAFAVP
TAF AMD
KAVP 241025Z 2410/2506 17012G22KT P6SM -RA SCT025 OVC035
      WS020/16045KT
     FM241200 19010G20KT P6SM SCT008 OVC015 WS020/19040KT
     FM241500 20010KT P6SM OVC025 WS020/19040KT
     FM241800 20010G20KT P6SM BKN045 WS020/20040KT
     FM250000 24012KT P6SM BKN050=



000
FTUS41 KBGM 240800 AAA
TAFITH
TAF AMD
KITH 240854Z 2409/2506 14015G22KT 4SM -RA BR OVC015 WS020/16050KT
     FM241100 16015G25KT P6SM OVC015 WS020/19040KT
     FM241800 18015KT P6SM OVC040 WS020/19040KT
     FM250000 23015G25KT P6SM OVC040=



000
FTUS41 KBGM 240800 AAA
TAFBGM
TAF AMD
KBGM 240854Z 2409/2506 15015G25KT 4SM -RA BR OVC007 WS020/16050KT
     FM241100 17012G25KT P6SM BKN008 OVC015 WS020/19040KT
     FM241500 19012G22KT P6SM OVC015 WS020/19040KT
     FM241800 20015G25KT P6SM BKN040 WS020/20040KT
     FM250000 23015G25KT P6SM OVC040=



000
FTUS41 KBGM 240800 AAA
TAFSYR
TAF AMD
KSYR 240854Z 2409/2506 12012G20KT P6SM -RA OVC025 WS020/17050KT
     FM241000 16015G25KT P6SM OVC035 WS020/19045KT
     FM241500 19015G25KT P6SM BKN045 WS020/20040KT
     FM250000 25015G25KT P6SM OVC040=



000
FTUS41 KBGM 240800 AAA
TAFELM
TAF AMD
KELM 240854Z 2409/2506 16010G20KT P6SM OVC035 WS020/19040KT
     FM241600 22015G25KT P6SM BKN045 WS020/20040KT
     FM250000 25012KT P6SM BKN040=



000
FTUS41 KBGM 240800 AAA
TAFAVP
TAF AMD
KAVP 240854Z 2409/2506 14010KT 5SM -RA BR SCT025 OVC035
      WS020/16045KT
     FM241100 20008KT P6SM OVC008 WS020/19040KT
     FM241500 20010KT P6SM OVC025 WS020/19040KT
     FM241800 20010G20KT P6SM BKN045 WS020/20040KT
     FM250000 24012KT P6SM BKN050=



    US Dept of Commerce
    National Oceanic and Atmospheric Administration
    National Weather Service
    1325 East West Highway
    Silver Spring, MD 20910
    Page Author: NWS Internet Services Team
Disclaimer
Information Quality
Credits
Glossary
Privacy Policy
Freedom of Information Act (FOIA)
About Us
Career Opportunities